createdAt,value
2019-02-25T00:01:53.282Z,3.00
2019-02-25T00:04:33.958Z,3.00
2019-02-25T00:07:14.488Z,3.00
2019-02-25T00:09:55.271Z,3.00
2019-02-25T00:12:36.153Z,3.10
2019-02-25T00:18:03.265Z,3.80
2019-02-25T00:20:44.139Z,3.80
2019-02-25T00:23:24.833Z,3.90
2019-02-25T00:26:05.486Z,3.50
2019-02-25T00:28:49.185Z,3.40
2019-02-25T00:31:31.883Z,3.40
2019-02-25T00:34:12.391Z,3.50
2019-02-25T00:36:54.510Z,3.40
2019-02-25T00:39:35.573Z,3.50
2019-02-25T00:42:16.366Z,3.70
2019-02-25T00:45:00.044Z,3.70
2019-02-25T00:50:25.338Z,3.60
2019-02-25T00:53:05.999Z,3.50
2019-02-25T00:55:46.723Z,3.40
2019-02-25T00:58:27.567Z,3.70
2019-02-25T01:01:08.185Z,3.50
2019-02-25T01:03:48.856Z,3.60
2019-02-25T01:06:29.761Z,3.60
2019-02-25T01:09:10.200Z,3.70
2019-02-25T01:11:51.482Z,4.00
2019-02-25T01:14:31.959Z,4.00
2019-02-25T01:17:12.777Z,3.90
2019-02-25T01:19:56.763Z,3.80
2019-02-25T01:22:37.857Z,3.70
2019-02-25T01:25:18.628Z,3.70
2019-02-25T01:30:48.152Z,3.30
2019-02-25T01:33:28.486Z,3.10
2019-02-25T01:36:09.247Z,3.20
2019-02-25T01:38:50.004Z,3.10
2019-02-25T01:41:30.784Z,3.40
2019-02-25T01:44:12.110Z,3.40
2019-02-25T01:46:54.059Z,3.60
2019-02-25T01:49:35.356Z,3.50
2019-02-25T01:52:15.736Z,3.50
2019-02-25T01:54:57.946Z,3.10
2019-02-25T01:57:39.006Z,3.10
2019-02-25T02:00:19.977Z,3.20
2019-02-25T02:03:00.340Z,3.40
2019-02-25T02:05:41.205Z,3.20
2019-02-25T02:08:23.378Z,2.90
2019-02-25T02:11:06.887Z,3.20
2019-02-25T02:13:48.330Z,3.30
2019-02-25T02:16:28.854Z,3.30
2019-02-25T02:19:09.914Z,3.20
2019-02-25T02:21:50.921Z,3.00
2019-02-25T02:24:31.572Z,3.00
2019-02-25T02:27:12.555Z,2.90
2019-02-25T02:29:53.041Z,2.80
2019-02-25T02:32:33.841Z,2.90
2019-02-25T02:35:14.490Z,2.90
2019-02-25T02:37:54.944Z,2.60
2019-02-25T02:40:35.540Z,2.40
2019-02-25T02:43:15.958Z,2.50
2019-02-25T02:45:56.945Z,2.60
2019-02-25T02:48:37.908Z,2.70
2019-02-25T02:51:18.372Z,2.50
2019-02-25T02:54:01.237Z,2.40
2019-02-25T02:56:41.732Z,2.40
2019-02-25T02:59:22.856Z,2.30
2019-02-25T03:02:03.505Z,2.50
2019-02-25T03:04:44.111Z,2.50
2019-02-25T03:07:26.565Z,2.30
2019-02-25T03:10:06.850Z,2.20
2019-02-25T03:12:50.727Z,2.10
2019-02-25T03:15:31.716Z,2.40
2019-02-25T03:18:12.566Z,2.40
2019-02-25T03:20:53.785Z,2.60
2019-02-25T03:23:34.963Z,2.70
2019-02-25T03:26:15.916Z,2.60
2019-02-25T03:28:56.929Z,2.30
2019-02-25T03:31:38.086Z,2.40
2019-02-25T03:34:18.975Z,2.60
2019-02-25T03:36:59.275Z,2.60
2019-02-25T03:39:39.941Z,2.60
2019-02-25T03:42:21.007Z,2.50
2019-02-25T03:45:01.914Z,2.40
2019-02-25T03:47:42.708Z,2.20
2019-02-25T03:50:23.557Z,2.20
2019-02-25T03:53:04.224Z,2.20
2019-02-25T03:55:45.165Z,2.20
2019-02-25T03:58:29.018Z,2.20
2019-02-25T04:01:09.558Z,2.10
2019-02-25T04:03:50.528Z,2.00
2019-02-25T04:06:34.417Z,1.80
2019-02-25T04:09:15.629Z,1.70
2019-02-25T04:11:59.499Z,1.90
2019-02-25T04:17:27.008Z,1.60
2019-02-25T04:20:06.711Z,1.60
2019-02-25T04:22:47.634Z,1.60
2019-02-25T04:25:29.750Z,1.70
2019-02-25T04:28:10.122Z,1.80
2019-02-25T04:33:34.733Z,1.80
2019-02-25T04:39:04.075Z,1.50
2019-02-25T04:41:45.299Z,1.80
2019-02-25T04:44:28.773Z,1.70
2019-02-25T04:47:09.875Z,1.60
2019-02-25T04:49:50.591Z,1.60
2019-02-25T04:52:31.402Z,1.70
2019-02-25T04:55:14.301Z,1.40
2019-02-25T04:57:55.073Z,1.30
2019-02-25T05:00:35.657Z,1.30
2019-02-25T05:03:16.495Z,1.40
2019-02-25T05:08:41.271Z,1.40
2019-02-25T05:14:09.143Z,1.50
2019-02-25T05:16:50.354Z,1.60
2019-02-25T05:19:31.940Z,1.70
2019-02-25T05:22:12.311Z,1.30
2019-02-25T05:24:54.407Z,1.20
2019-02-25T05:27:35.455Z,1.60
2019-02-25T05:30:16.287Z,1.40
2019-02-25T05:32:57.197Z,1.30
2019-02-25T05:35:37.884Z,1.20
2019-02-25T05:38:18.733Z,1.40
2019-02-25T05:40:59.331Z,1.60
2019-02-25T05:43:39.762Z,1.40
2019-02-25T05:46:20.576Z,1.20
2019-02-25T05:49:01.685Z,1.20
2019-02-25T05:51:42.183Z,1.20
2019-02-25T05:54:22.810Z,1.40
2019-02-25T05:57:03.573Z,1.50
2019-02-25T05:59:44.546Z,1.50
2019-02-25T06:02:25.195Z,1.40
2019-02-25T06:05:05.961Z,1.10
2019-02-25T06:07:46.358Z,1.10
2019-02-25T06:10:26.669Z,1.40
2019-02-25T06:13:07.397Z,1.40
2019-02-25T06:15:48.312Z,1.30
2019-02-25T06:18:30.735Z,1.20
2019-02-25T06:23:55.827Z,1.10
2019-02-25T06:29:23.742Z,1.60
2019-02-25T06:32:04.904Z,1.40
2019-02-25T06:34:45.579Z,1.50
2019-02-25T06:37:26.080Z,1.60
2019-02-25T06:40:09.017Z,1.30
2019-02-25T06:45:35.031Z,1.60
2019-02-25T06:48:15.699Z,1.80
2019-02-25T06:50:59.855Z,1.90
2019-02-25T06:53:40.012Z,1.80
2019-02-25T06:56:20.836Z,1.70
2019-02-25T06:59:01.823Z,1.80
2019-02-25T07:04:33.674Z,1.70
2019-02-25T07:13:19.549Z,2.20
2019-02-25T07:16:20.964Z,2.20
2019-02-25T07:19:06.345Z,2.30
2019-02-25T07:21:51.888Z,2.50
2019-02-25T07:24:35.007Z,2.50
2019-02-25T07:27:20.462Z,2.50
2019-02-25T07:30:21.585Z,2.50
2019-02-25T07:38:59.542Z,2.70
2019-02-25T07:41:41.786Z,2.70
2019-02-25T07:44:45.171Z,2.80
2019-02-25T07:50:44.833Z,2.90
2019-02-25T07:56:32.091Z,3.40
2019-02-25T07:59:12.696Z,3.30
2019-02-25T08:02:16.124Z,3.40
2019-02-25T08:04:58.149Z,3.40
2019-02-25T08:07:42.968Z,3.40
2019-02-25T08:10:45.757Z,3.50
2019-02-25T08:16:37.176Z,3.70
2019-02-25T08:19:22.524Z,3.70
2019-02-25T08:22:26.601Z,3.90
2019-02-25T08:25:10.988Z,3.90
2019-02-25T08:27:56.896Z,3.90
2019-02-25T08:33:48.102Z,4.20
2019-02-25T08:36:31.189Z,4.20
2019-02-25T08:42:16.613Z,4.30
2019-02-25T08:47:43.696Z,4.60
2019-02-25T08:50:25.831Z,4.70
2019-02-25T08:53:07.658Z,4.60
2019-02-25T08:55:51.426Z,4.40
2019-02-25T08:58:36.370Z,4.50
2019-02-25T09:01:15.672Z,4.40
2019-02-25T09:03:56.600Z,4.50
2019-02-25T09:06:38.719Z,4.50
2019-02-25T09:09:20.199Z,4.60
2019-02-25T09:12:02.903Z,4.80
2019-02-25T09:14:43.692Z,5.00
2019-02-25T09:17:34.384Z,5.00
2019-02-25T09:23:30.662Z,5.30
2019-02-25T09:26:18.709Z,5.10
2019-02-25T09:29:06.649Z,5.40
2019-02-25T09:35:01.282Z,5.50
2019-02-25T09:40:44.064Z,5.40
2019-02-25T09:43:31.879Z,5.70
2019-02-25T09:52:28.504Z,5.70
2019-02-25T09:55:16.259Z,5.70
2019-02-25T09:58:34.252Z,5.70
2019-02-25T10:01:13.126Z,5.60
2019-02-25T10:04:00.894Z,6.20
2019-02-25T10:06:48.705Z,6.60
2019-02-25T10:09:37.051Z,6.50
2019-02-25T10:15:33.601Z,6.30
2019-02-25T10:18:40.827Z,6.40
2019-02-25T10:21:28.660Z,6.40
2019-02-25T10:24:16.702Z,6.50
2019-02-25T10:27:25.715Z,6.70
2019-02-25T10:30:34.478Z,6.70
2019-02-25T10:36:19.812Z,7.00
2019-02-25T10:42:37.671Z,6.90
2019-02-25T10:51:41.190Z,7.90
2019-02-25T10:54:29.494Z,8.10
2019-02-25T10:57:37.603Z,8.50
2019-02-25T11:00:25.452Z,8.00
2019-02-25T11:03:15.165Z,8.50
2019-02-25T11:06:03.292Z,8.40
2019-02-25T11:11:48.561Z,8.10
2019-02-25T11:14:35.763Z,8.40
2019-02-25T11:17:18.336Z,8.70
2019-02-25T11:20:05.573Z,8.60
2019-02-25T11:22:46.694Z,8.50
2019-02-25T11:25:30.176Z,9.20
2019-02-25T11:28:23.571Z,9.20
2019-02-25T11:30:56.196Z,9.40
2019-02-25T11:33:39.111Z,9.40
2019-02-25T11:36:21.938Z,9.20
2019-02-25T11:39:09.343Z,9.70
2019-02-25T11:41:49.085Z,10.30
2019-02-25T11:44:31.281Z,10.10
2019-02-25T11:47:13.606Z,10.10
2019-02-25T11:49:57.916Z,10.30
2019-02-25T11:52:38.418Z,10.40
2019-02-25T11:55:23.594Z,10.70
2019-02-25T12:00:51.084Z,10.40
2019-02-25T12:06:17.116Z,10.70
2019-02-25T12:08:57.407Z,10.90
2019-02-25T12:11:38.248Z,11.10
2019-02-25T12:14:20.199Z,11.30
2019-02-25T12:17:02.775Z,11.60
2019-02-25T12:22:36.061Z,11.50
2019-02-25T12:25:17.427Z,12.00
2019-02-25T12:27:58.575Z,12.20
2019-02-25T12:30:39.998Z,12.00
2019-02-25T12:33:21.389Z,12.00
2019-02-25T12:38:47.949Z,12.50
2019-02-25T12:41:29.554Z,12.60
2019-02-25T12:44:12.899Z,12.50
2019-02-25T12:46:53.607Z,12.60
2019-02-25T12:49:35.436Z,12.90
2019-02-25T12:52:16.009Z,12.50
2019-02-25T12:54:56.638Z,12.50
2019-02-25T12:57:37.335Z,12.50
2019-02-25T13:00:18.175Z,12.60
2019-02-25T13:03:01.547Z,12.60
2019-02-25T13:05:43.032Z,12.80
2019-02-25T13:08:25.373Z,12.80
2019-02-25T13:11:12.366Z,12.90
2019-02-25T13:13:50.930Z,13.00
2019-02-25T13:16:33.310Z,13.10
2019-02-25T13:19:15.475Z,13.20
2019-02-25T13:21:56.621Z,13.20
2019-02-25T13:24:39.521Z,13.40
2019-02-25T13:27:21.844Z,13.60
2019-02-25T13:30:03.400Z,13.80
2019-02-25T13:35:34.327Z,13.80
2019-02-25T13:38:16.761Z,13.90
2019-02-25T13:40:58.671Z,13.90
2019-02-25T13:43:38.901Z,14.00
2019-02-25T13:46:20.650Z,14.10
2019-02-25T13:49:03.089Z,14.20
2019-02-25T13:51:44.671Z,14.40
2019-02-25T13:54:25.384Z,14.40
2019-02-25T13:57:07.688Z,14.50
2019-02-25T14:02:32.831Z,14.40
2019-02-25T14:05:18.597Z,14.50
2019-02-25T14:08:01.366Z,14.80
2019-02-25T14:10:42.460Z,14.90
2019-02-25T14:13:23.296Z,14.90
2019-02-25T14:16:05.189Z,15.00
2019-02-25T14:18:46.824Z,15.30
2019-02-25T14:21:31.651Z,15.50
2019-02-25T14:24:14.482Z,15.50
2019-02-25T14:26:56.425Z,15.70
2019-02-25T14:29:37.985Z,15.50
2019-02-25T14:32:20.028Z,15.40
2019-02-25T14:35:02.630Z,15.50
2019-02-25T14:37:45.367Z,15.80
2019-02-25T14:40:31.589Z,15.90
2019-02-25T14:43:13.178Z,15.70
2019-02-25T14:45:56.843Z,15.90
2019-02-25T14:48:38.063Z,15.80
2019-02-25T14:51:19.225Z,15.90
2019-02-25T14:54:01.551Z,16.00
2019-02-25T14:56:47.159Z,16.00
2019-02-25T14:59:26.603Z,16.10
2019-02-25T15:04:58.553Z,16.20
2019-02-25T15:07:40.253Z,16.20
2019-02-25T15:10:26.700Z,16.20
2019-02-25T15:13:06.078Z,16.30
2019-02-25T15:15:50.272Z,16.30
2019-02-25T15:18:31.308Z,16.20
2019-02-25T15:21:15.737Z,16.30
2019-02-25T15:23:54.426Z,16.40
2019-02-25T15:26:42.864Z,16.40
2019-02-25T15:29:20.020Z,16.50
2019-02-25T15:32:01.961Z,16.50
2019-02-25T15:37:26.465Z,16.30
2019-02-25T15:42:58.752Z,16.40
2019-02-25T15:45:42.538Z,16.30
2019-02-25T15:48:24.544Z,16.40
2019-02-25T15:51:05.022Z,16.40
2019-02-25T15:53:48.967Z,16.20
2019-02-25T15:59:19.643Z,16.20
2019-02-25T16:02:03.535Z,16.00
2019-02-25T16:04:47.238Z,16.00
2019-02-25T16:07:29.891Z,15.90
2019-02-25T16:10:16.260Z,15.80
2019-02-25T16:12:58.276Z,15.90
2019-02-25T16:15:43.177Z,15.80
2019-02-25T16:18:25.314Z,15.80
2019-02-25T16:23:54.487Z,15.60
2019-02-25T16:29:22.717Z,15.40
2019-02-25T16:32:03.651Z,15.20
2019-02-25T16:34:46.102Z,15.00
2019-02-25T16:37:29.120Z,14.90
2019-02-25T16:40:10.692Z,14.70
2019-02-25T16:42:55.002Z,14.60
2019-02-25T16:45:37.280Z,14.50
2019-02-25T16:48:19.310Z,14.40
2019-02-25T16:51:05.002Z,14.30
2019-02-25T16:53:50.516Z,14.20
2019-02-25T16:56:29.562Z,14.00
2019-02-25T16:59:13.566Z,13.90
2019-02-25T17:04:38.925Z,13.60
2019-02-25T17:07:22.620Z,13.60
2019-02-25T17:10:03.626Z,13.50
2019-02-25T17:12:47.921Z,13.50
2019-02-25T17:15:31.730Z,13.40
2019-02-25T17:18:15.202Z,13.20
2019-02-25T17:20:54.829Z,13.10
2019-02-25T17:23:37.070Z,13.10
2019-02-25T17:26:19.672Z,13.00
2019-02-25T17:29:00.557Z,13.00
2019-02-25T17:31:42.844Z,12.90
2019-02-25T17:34:27.353Z,12.90
2019-02-25T17:37:08.483Z,12.90
2019-02-25T17:39:54.490Z,12.90
2019-02-25T17:42:34.442Z,12.80
2019-02-25T17:45:17.562Z,12.70
2019-02-25T17:48:01.245Z,12.60
2019-02-25T17:50:41.889Z,12.50
2019-02-25T17:53:24.111Z,12.40
2019-02-25T17:56:11.058Z,12.30
2019-02-25T17:58:53.263Z,12.30
2019-02-25T18:01:36.514Z,12.20
2019-02-25T18:04:17.751Z,12.20
2019-02-25T18:07:00.024Z,12.10
2019-02-25T18:09:42.675Z,12.00
2019-02-25T18:12:25.684Z,11.90
2019-02-25T18:15:09.467Z,11.80
2019-02-25T18:17:53.541Z,11.70
2019-02-25T18:20:36.597Z,11.60
2019-02-25T18:28:58.036Z,11.50
2019-02-25T18:31:41.946Z,11.50
2019-02-25T18:34:22.565Z,11.40
2019-02-25T18:37:04.483Z,11.30
2019-02-25T18:39:47.955Z,11.10
2019-02-25T18:42:31.651Z,11.00
2019-02-25T18:45:16.024Z,10.90
2019-02-25T18:47:57.192Z,10.80
2019-02-25T18:50:39.381Z,10.70
2019-02-25T18:53:21.213Z,10.70
2019-02-25T18:56:03.207Z,10.60
2019-02-25T18:58:43.757Z,10.60
2019-02-25T19:01:26.515Z,10.60
2019-02-25T19:04:07.066Z,10.70
2019-02-25T19:06:49.604Z,10.70
2019-02-25T19:09:30.134Z,10.70
2019-02-25T19:12:10.958Z,10.70
2019-02-25T19:14:55.189Z,10.60
2019-02-25T19:17:34.239Z,10.60
2019-02-25T19:23:03.231Z,10.50
2019-02-25T19:25:47.999Z,10.40
2019-02-25T19:28:30.235Z,10.40
2019-02-25T19:31:10.965Z,10.40
2019-02-25T19:33:51.539Z,10.40
2019-02-25T19:36:36.925Z,10.30
2019-02-25T19:39:19.759Z,10.20
2019-02-25T19:42:00.925Z,10.20
2019-02-25T19:44:29.887Z,10.20
2019-02-25T19:47:19.393Z,10.10
2019-02-25T19:50:29.878Z,10.10
2019-02-25T19:53:20.287Z,10.00
2019-02-25T19:56:27.119Z,10.00
2019-02-25T19:59:15.023Z,10.00
2019-02-25T20:02:03.156Z,9.90
2019-02-25T20:04:52.004Z,9.80
2019-02-25T20:07:40.735Z,9.70
2019-02-25T20:13:29.645Z,9.50
2019-02-25T20:16:13.421Z,9.40
2019-02-25T20:18:53.864Z,9.40
2019-02-25T20:21:34.847Z,9.30
2019-02-25T20:24:16.920Z,9.20
2019-02-25T20:27:00.113Z,9.30
2019-02-25T20:29:40.854Z,9.30
2019-02-25T20:32:24.711Z,9.40
2019-02-25T20:35:05.891Z,9.50
2019-02-25T20:37:51.100Z,9.40
2019-02-25T20:40:30.475Z,9.30
2019-02-25T20:43:11.772Z,9.00
2019-02-25T20:48:37.933Z,9.10
2019-02-25T20:51:18.827Z,9.00
2019-02-25T20:53:59.575Z,9.00
2019-02-25T20:56:40.402Z,8.90
2019-02-25T20:59:21.252Z,8.80
2019-02-25T21:02:04.851Z,8.70
2019-02-25T21:04:51.886Z,8.70
2019-02-25T21:07:33.932Z,8.60
2019-02-25T21:10:15.104Z,8.70
2019-02-25T21:12:57.197Z,8.70
2019-02-25T21:15:40.658Z,8.60
2019-02-25T21:18:22.443Z,8.60
2019-02-25T21:21:05.577Z,8.70
2019-02-25T21:23:46.350Z,8.90
2019-02-25T21:26:29.255Z,9.10
2019-02-25T21:29:09.800Z,8.90
2019-02-25T21:31:53.767Z,9.00
2019-02-25T21:34:33.741Z,9.10
2019-02-25T21:37:14.311Z,9.00
2019-02-25T21:39:56.014Z,8.90
2019-02-25T21:45:22.399Z,8.50
2019-02-25T21:48:05.671Z,8.60
2019-02-25T21:50:49.104Z,8.80
2019-02-25T21:53:34.782Z,8.90
2019-02-25T21:59:06.715Z,8.80
2019-02-25T22:01:48.773Z,8.40
2019-02-25T22:04:29.441Z,8.20
2019-02-25T22:07:10.062Z,8.10
2019-02-25T22:09:52.924Z,8.10
2019-02-25T22:12:35.271Z,8.20
2019-02-25T22:15:19.800Z,7.90
2019-02-25T22:18:01.678Z,7.70
2019-02-25T22:20:44.578Z,7.60
2019-02-25T22:26:17.264Z,7.70
2019-02-25T22:29:00.044Z,7.60
2019-02-25T22:31:42.029Z,7.70
2019-02-25T22:34:25.302Z,7.50
2019-02-25T22:40:14.051Z,7.60
2019-02-25T22:45:25.728Z,7.30
2019-02-25T22:48:07.741Z,7.20
2019-02-25T22:53:40.094Z,7.20
2019-02-25T22:56:21.472Z,6.90
2019-02-25T22:59:06.091Z,6.80
2019-02-25T23:01:52.066Z,6.90
2019-02-25T23:04:32.531Z,6.90
2019-02-25T23:09:59.427Z,6.30
2019-02-25T23:12:41.761Z,6.30
2019-02-25T23:15:24.596Z,6.70
2019-02-25T23:18:10.067Z,6.80
2019-02-25T23:20:47.752Z,6.20
2019-02-25T23:23:30.386Z,6.10
2019-02-25T23:26:12.626Z,6.40
2019-02-25T23:28:57.252Z,6.10
2019-02-25T23:31:36.962Z,5.80
2019-02-25T23:34:17.992Z,5.90
2019-02-25T23:39:44.923Z,5.90
2019-02-25T23:42:32.767Z,5.70
2019-02-25T23:45:12.994Z,5.70
2019-02-25T23:50:42.677Z,6.00
2019-02-25T23:53:24.061Z,6.00
2019-02-25T23:56:06.228Z,6.00
2019-02-25T23:58:49.600Z,5.90
